createdAt,value
2016-12-23T00:00:14.102Z,99.89
2016-12-23T00:00:42.361Z,99.8
2016-12-23T00:01:53.675Z,99.89
2016-12-23T00:02:21.809Z,99.8
2016-12-23T00:02:50.161Z,99.89
2016-12-23T00:03:18.395Z,99.99
2016-12-23T00:03:46.749Z,99.8
2016-12-23T00:04:15.076Z,99.99
2016-12-23T00:04:43.293Z,99.89
2016-12-23T00:05:11.490Z,99.89
2016-12-23T00:05:39.724Z,99.7
2016-12-23T00:06:08.015Z,99.99
2016-12-23T00:06:36.371Z,99.99
2016-12-23T00:07:47.774Z,99.89
2016-12-23T00:08:15.997Z,99.51
2016-12-23T00:08:44.352Z,99.99
2016-12-23T00:09:12.580Z,99.94
2016-12-23T00:09:40.848Z,99.89
2016-12-23T00:10:09.083Z,99.94
2016-12-23T00:10:37.293Z,99.99
2016-12-23T00:11:05.497Z,99.89
2016-12-23T00:11:33.732Z,99.8
2016-12-23T00:12:01.839Z,99.99
2016-12-23T00:12:30.005Z,99.31
2016-12-23T00:13:41.311Z,99.31
2016-12-23T00:14:09.628Z,99.02
2016-12-23T00:14:37.980Z,99.36
2016-12-23T00:15:06.214Z,99.12
2016-12-23T00:15:34.870Z,99.26
2016-12-23T00:16:03.173Z,98.63
2016-12-23T00:16:31.483Z,99.12
2016-12-23T00:16:59.687Z,98.93
2016-12-23T00:17:27.916Z,99.12
2016-12-23T00:17:56.220Z,99.21
2016-12-23T00:18:24.484Z,99.02
2016-12-23T00:19:35.890Z,98.93
2016-12-23T00:20:04.210Z,98.73
2016-12-23T00:20:32.468Z,98.83
2016-12-23T00:21:00.718Z,99.31
2016-12-23T00:21:28.906Z,98.93
2016-12-23T00:21:57.232Z,98.73
2016-12-23T00:22:25.473Z,98.83
2016-12-23T00:22:53.787Z,99.31
2016-12-23T00:23:22.006Z,99.21
2016-12-23T00:23:50.203Z,99.31
2016-12-23T00:24:18.467Z,99.02
2016-12-23T00:25:29.767Z,99.6
2016-12-23T00:25:57.896Z,99.41
2016-12-23T00:26:26.157Z,99.41
2016-12-23T00:26:54.233Z,99.51
2016-12-23T00:27:22.497Z,99.7
2016-12-23T00:27:50.816Z,99.51
2016-12-23T00:28:19.065Z,99.12
2016-12-23T00:28:47.210Z,99.21
2016-12-23T00:29:15.328Z,99.41
2016-12-23T00:29:43.157Z,99.8
2016-12-23T00:30:11.423Z,99.8
2016-12-23T00:31:22.823Z,99.89
2016-12-23T00:31:50.854Z,99.99
2016-12-23T00:32:19.027Z,99.89
2016-12-23T00:32:47.288Z,99.89
2016-12-23T00:33:15.642Z,99.8
2016-12-23T00:33:43.957Z,99.99
2016-12-23T00:34:12.192Z,99.99
2016-12-23T00:34:40.322Z,99.99
2016-12-23T00:35:08.538Z,99.99
2016-12-23T00:35:36.652Z,99.99
2016-12-23T00:36:04.912Z,99.99
2016-12-23T00:37:16.310Z,99.99
2016-12-23T00:37:44.634Z,99.99
2016-12-23T00:38:12.988Z,99.99
2016-12-23T00:38:41.240Z,99.99
2016-12-23T00:39:09.594Z,99.99
2016-12-23T00:39:37.811Z,99.99
2016-12-23T00:40:06.051Z,99.99
2016-12-23T00:40:34.274Z,99.99
2016-12-23T00:41:02.593Z,99.99
2016-12-23T00:41:30.799Z,99.99
2016-12-23T00:41:59.175Z,99.99
2016-12-23T00:43:10.478Z,99.99
2016-12-23T00:43:38.800Z,99.99
2016-12-23T00:44:07.152Z,99.99
2016-12-23T00:44:35.418Z,99.99
2016-12-23T00:45:03.679Z,99.99
2016-12-23T00:45:31.898Z,99.99
2016-12-23T00:46:00.140Z,99.99
2016-12-23T00:46:28.262Z,99.99
2016-12-23T00:46:56.292Z,99.99
2016-12-23T00:47:24.397Z,99.99
2016-12-23T00:47:52.657Z,99.99
2016-12-23T00:49:03.889Z,99.99
2016-12-23T00:49:32.105Z,99.99
2016-12-23T00:50:00.457Z,99.99
2016-12-23T00:50:28.618Z,99.99
2016-12-23T00:50:56.976Z,99.99
2016-12-23T00:51:25.203Z,99.99
2016-12-23T00:51:53.438Z,99.99
2016-12-23T00:52:21.656Z,99.99
2016-12-23T00:52:49.872Z,99.99
2016-12-23T00:53:18.177Z,99.99
2016-12-23T00:53:46.530Z,99.99
2016-12-23T00:54:57.747Z,99.99
2016-12-23T00:55:25.968Z,99.99
2016-12-23T00:55:54.227Z,99.99
2016-12-23T00:56:22.486Z,99.99
2016-12-23T00:56:50.745Z,99.99
2016-12-23T00:57:19.064Z,99.99
2016-12-23T00:57:47.396Z,99.99
2016-12-23T00:58:15.701Z,99.99
2016-12-23T00:58:44.013Z,99.99
2016-12-23T00:59:12.212Z,99.99
2016-12-23T00:59:40.570Z,99.99
2016-12-23T01:00:51.968Z,99.99
2016-12-23T01:01:20.288Z,99.99
2016-12-23T01:01:48.644Z,99.99
2016-12-23T01:02:16.992Z,99.99
2016-12-23T01:02:45.348Z,99.99
2016-12-23T01:03:13.572Z,99.99
2016-12-23T01:03:41.913Z,99.99
2016-12-23T01:04:10.213Z,99.99
2016-12-23T01:04:38.425Z,99.99
2016-12-23T01:05:06.537Z,99.99
2016-12-23T01:05:34.803Z,99.99
2016-12-23T01:06:46.199Z,99.99
2016-12-23T01:07:14.336Z,99.99
2016-12-23T01:07:42.496Z,99.99
2016-12-23T01:08:10.758Z,99.99
2016-12-23T01:08:39.017Z,99.99
2016-12-23T01:09:07.333Z,99.99
2016-12-23T01:09:35.669Z,99.99
2016-12-23T01:10:03.977Z,99.99
2016-12-23T01:10:32.284Z,99.99
2016-12-23T01:11:00.485Z,99.99
2016-12-23T01:11:28.840Z,99.99
2016-12-23T01:12:40.246Z,99.99
2016-12-23T01:13:08.376Z,99.99
2016-12-23T01:13:36.641Z,99.99
2016-12-23T01:14:04.806Z,99.99
2016-12-23T01:14:33.068Z,99.99
2016-12-23T01:15:01.384Z,99.99
2016-12-23T01:15:29.530Z,99.99
2016-12-23T01:15:57.650Z,99.99
2016-12-23T01:16:25.866Z,99.31
2016-12-23T01:16:53.976Z,98.63
2016-12-23T01:17:22.331Z,98.05
2016-12-23T01:18:33.728Z,97.18
2016-12-23T01:19:01.862Z,97.38
2016-12-23T01:19:30.216Z,96.89
2016-12-23T01:19:58.386Z,96.5
2016-12-23T01:20:26.744Z,96.7
2016-12-23T01:20:55.062Z,96.02
2016-12-23T01:21:23.395Z,96.55
2016-12-23T01:21:51.612Z,96.8
2016-12-23T01:22:19.915Z,96.17
2016-12-23T01:22:48.212Z,96.26
2016-12-23T01:23:16.473Z,96.07
2016-12-23T01:24:27.678Z,96.65
2016-12-23T01:24:55.999Z,96.07
2016-12-23T01:25:24.258Z,96.07
2016-12-23T01:25:52.610Z,96.26
2016-12-23T01:26:20.967Z,96.17
2016-12-23T01:26:49.184Z,96.26
2016-12-23T01:27:17.538Z,95.87
2016-12-23T01:27:45.752Z,95.29
2016-12-23T01:28:14.061Z,95.25
2016-12-23T01:28:42.266Z,95.39
2016-12-23T01:29:10.526Z,95.54
2016-12-23T01:30:21.917Z,95.64
2016-12-23T01:30:50.230Z,94.81
2016-12-23T01:31:18.486Z,95.01
2016-12-23T01:31:46.646Z,95.05
2016-12-23T01:32:14.998Z,94.71
2016-12-23T01:32:43.319Z,94.67
2016-12-23T01:33:11.460Z,94.28
2016-12-23T01:33:39.580Z,94.47
2016-12-23T01:34:07.890Z,94.71
2016-12-23T01:34:35.909Z,94.18
2016-12-23T01:35:04.266Z,94.47
2016-12-23T01:36:15.577Z,94.37
2016-12-23T01:36:43.798Z,94.52
2016-12-23T01:37:12.056Z,94.52
2016-12-23T01:37:40.295Z,94.23
2016-12-23T01:38:08.457Z,94.23
2016-12-23T01:38:36.676Z,94.62
2016-12-23T01:39:04.823Z,94.91
2016-12-23T01:39:33.034Z,94.71
2016-12-23T01:40:01.248Z,95.01
2016-12-23T01:40:29.546Z,94.81
2016-12-23T01:40:57.713Z,95.39
2016-12-23T01:42:09.103Z,95.39
2016-12-23T01:42:37.325Z,95.39
2016-12-23T01:43:05.587Z,95.39
2016-12-23T01:43:33.942Z,95.49
2016-12-23T01:44:02.298Z,95.29
2016-12-23T01:44:30.524Z,95.97
2016-12-23T01:44:58.863Z,95.68
2016-12-23T01:45:27.170Z,95.87
2016-12-23T01:45:55.482Z,95.78
2016-12-23T01:46:23.782Z,95.87
2016-12-23T01:46:52.044Z,95.59
2016-12-23T01:48:03.443Z,96.26
2016-12-23T01:48:31.579Z,96.26
2016-12-23T01:48:59.930Z,96.17
2016-12-23T01:49:27.905Z,96.36
2016-12-23T01:49:56.266Z,96.31
2016-12-23T01:50:24.585Z,96.84
2016-12-23T01:50:52.918Z,96.8
2016-12-23T01:51:21.129Z,96.6
2016-12-23T01:51:49.344Z,96.7
2016-12-23T01:52:17.456Z,96.31
2016-12-23T01:52:45.815Z,96.41
2016-12-23T01:53:57.213Z,96.7
2016-12-23T01:54:25.531Z,96.31
2016-12-23T01:54:53.789Z,96.7
2016-12-23T01:55:22.140Z,96.51
2016-12-23T01:55:50.500Z,96.8
2016-12-23T01:56:18.813Z,96.8
2016-12-23T01:56:47.149Z,96.99
2016-12-23T01:57:15.456Z,96.8
2016-12-23T01:57:43.670Z,96.89
2016-12-23T01:58:11.876Z,97.09
2016-12-23T01:58:40.238Z,96.99
2016-12-23T01:59:51.637Z,97.62
2016-12-23T02:00:19.862Z,97.38
2016-12-23T02:00:48.214Z,97.38
2016-12-23T02:01:16.564Z,96.89
2016-12-23T02:01:44.923Z,97.18
2016-12-23T02:02:13.055Z,97.38
2016-12-23T02:02:41.290Z,96.99
2016-12-23T02:03:09.502Z,97.18
2016-12-23T02:03:37.812Z,97.18
2016-12-23T02:04:06.107Z,97.77
2016-12-23T02:04:34.462Z,96.89
2016-12-23T02:05:45.856Z,97.57
2016-12-23T02:06:13.993Z,96.99
2016-12-23T02:06:42.343Z,97.86
2016-12-23T02:07:10.699Z,97.18
2016-12-23T02:07:38.884Z,97.09
2016-12-23T02:08:07.104Z,97.47
2016-12-23T02:08:35.442Z,96.99
2016-12-23T02:09:03.658Z,97.86
2016-12-23T02:09:31.966Z,97.57
2016-12-23T02:10:00.076Z,97.38
2016-12-23T02:10:28.431Z,96.99
2016-12-23T02:11:39.824Z,97.18
2016-12-23T02:12:08.045Z,97.38
2016-12-23T02:12:36.397Z,97.57
2016-12-23T02:13:04.748Z,97.57
2016-12-23T02:13:33.109Z,97.47
2016-12-23T02:14:01.422Z,97.28
2016-12-23T02:14:29.568Z,97.77
2016-12-23T02:14:57.880Z,97.47
2016-12-23T02:15:26.098Z,97.28
2016-12-23T02:15:54.400Z,97.47
2016-12-23T02:16:22.579Z,97.57
2016-12-23T02:17:33.887Z,96.89
2016-12-23T02:18:02.106Z,97.86
2016-12-23T02:18:30.277Z,97.47
2016-12-23T02:18:58.625Z,97.38
2016-12-23T02:19:26.983Z,97.33
2016-12-23T02:19:55.298Z,97.42
2016-12-23T02:20:23.635Z,97.47
2016-12-23T02:20:51.940Z,97.67
2016-12-23T02:21:20.250Z,98.15
2016-12-23T02:21:48.362Z,97.67
2016-12-23T02:22:16.719Z,97.57
2016-12-23T02:23:28.115Z,96.89
2016-12-23T02:23:56.430Z,97.86
2016-12-23T02:24:24.780Z,97.57
2016-12-23T02:24:52.851Z,97.67
2016-12-23T02:25:21.203Z,97.57
2016-12-23T02:25:49.336Z,97.77
2016-12-23T02:26:17.578Z,97.47
2016-12-23T02:26:45.792Z,97.38
2016-12-23T02:27:14.101Z,97.09
2016-12-23T02:27:42.401Z,97.47
2016-12-23T02:28:10.756Z,96.89
2016-12-23T02:29:22.063Z,97.62
2016-12-23T02:29:50.383Z,98.3
2016-12-23T02:30:18.739Z,97.91
2016-12-23T02:30:46.991Z,98.1
2016-12-23T02:31:15.349Z,98
2016-12-23T02:31:43.672Z,97.91
2016-12-23T02:32:12.005Z,98
2016-12-23T02:32:40.221Z,98.1
2016-12-23T02:33:08.531Z,98.3
2016-12-23T02:33:36.829Z,98.1
2016-12-23T02:34:05.180Z,98.1
2016-12-23T02:35:16.479Z,98.05
2016-12-23T02:35:44.703Z,98.54
2016-12-23T02:36:12.961Z,98.25
2016-12-23T02:36:41.309Z,98.35
2016-12-23T02:37:09.668Z,98.15
2016-12-23T02:37:37.985Z,98.44
2016-12-23T02:38:06.321Z,98.25
2016-12-23T02:38:34.629Z,98.25
2016-12-23T02:39:02.937Z,98.35
2016-12-23T02:39:31.044Z,98.25
2016-12-23T02:39:59.308Z,98.25
2016-12-23T02:41:10.617Z,98.15
2016-12-23T02:41:38.842Z,98.15
2016-12-23T02:42:07.101Z,98.44
2016-12-23T02:42:35.358Z,98.44
2016-12-23T02:43:03.526Z,98.25
2016-12-23T02:43:31.748Z,97.96
2016-12-23T02:43:59.895Z,98.05
2016-12-23T02:44:28.114Z,97.86
2016-12-23T02:44:56.329Z,97.77
2016-12-23T02:45:24.551Z,97.96
2016-12-23T02:45:52.639Z,97.96
2016-12-23T02:47:03.950Z,98.15
2016-12-23T02:47:32.265Z,98.15
2016-12-23T02:48:00.525Z,97.96
2016-12-23T02:48:28.873Z,98.44
2016-12-23T02:48:57.137Z,98.63
2016-12-23T02:49:25.361Z,98.44
2016-12-23T02:49:53.698Z,98.44
2016-12-23T02:50:21.819Z,98.54
2016-12-23T02:50:50.132Z,98.25
2016-12-23T02:51:18.430Z,98.54
2016-12-23T02:51:46.791Z,98.54
2016-12-23T02:52:58.093Z,98.05
2016-12-23T02:53:26.314Z,98.54
2016-12-23T02:53:54.575Z,98.63
2016-12-23T02:54:22.832Z,98.35
2016-12-23T02:54:51.004Z,98.35
2016-12-23T02:55:19.322Z,98.44
2016-12-23T02:55:47.567Z,98.44
2016-12-23T02:56:15.781Z,98.44
2016-12-23T02:56:44.002Z,98.35
2016-12-23T02:57:12.195Z,98.44
2016-12-23T02:57:40.363Z,98.35
2016-12-23T02:58:51.571Z,98.35
2016-12-23T02:59:19.797Z,98.44
2016-12-23T02:59:47.986Z,98.25
2016-12-23T03:00:16.315Z,98.54
2016-12-23T03:00:44.676Z,98.63
2016-12-23T03:01:12.992Z,98.73
2016-12-23T03:01:41.239Z,98.58
2016-12-23T03:02:09.550Z,98.39
2016-12-23T03:02:37.763Z,98.78
2016-12-23T03:03:06.059Z,98.83
2016-12-23T03:03:34.424Z,99.07
2016-12-23T03:04:45.816Z,98.78
2016-12-23T03:05:14.134Z,98.49
2016-12-23T03:05:42.488Z,99.07
2016-12-23T03:06:10.744Z,98.78
2016-12-23T03:06:39.101Z,98.78
2016-12-23T03:07:07.420Z,98.88
2016-12-23T03:07:35.755Z,98.88
2016-12-23T03:08:03.967Z,98.78
2016-12-23T03:08:32.272Z,98.49
2016-12-23T03:09:00.573Z,98.58
2016-12-23T03:09:28.936Z,99.07
2016-12-23T03:10:40.238Z,99.07
2016-12-23T03:11:08.467Z,98.88
2016-12-23T03:11:36.823Z,98.68
2016-12-23T03:12:05.170Z,98.88
2016-12-23T03:12:33.434Z,98.58
2016-12-23T03:13:01.658Z,98.88
2016-12-23T03:13:29.901Z,98.97
2016-12-23T03:13:58.111Z,98.97
2016-12-23T03:14:26.423Z,98.97
2016-12-23T03:14:54.720Z,98.58
2016-12-23T03:15:23.072Z,98.25
2016-12-23T03:16:34.375Z,98.54
2016-12-23T03:17:02.693Z,98.35
2016-12-23T03:17:30.955Z,98.44
2016-12-23T03:17:59.305Z,98.44
2016-12-23T03:18:27.570Z,98.63
2016-12-23T03:18:55.791Z,98.49
2016-12-23T03:19:24.128Z,98.2
2016-12-23T03:19:52.349Z,98.3
2016-12-23T03:20:20.662Z,98.49
2016-12-23T03:20:48.868Z,98.68
2016-12-23T03:21:17.225Z,98.3
2016-12-23T03:22:28.622Z,98.88
2016-12-23T03:22:56.938Z,98.88
2016-12-23T03:23:25.105Z,98.68
2016-12-23T03:23:53.339Z,98.58
2016-12-23T03:24:21.696Z,98.78
2016-12-23T03:24:50.022Z,98.68
2016-12-23T03:25:18.333Z,98.58
2016-12-23T03:25:46.628Z,98.49
2016-12-23T03:26:14.946Z,98.68
2016-12-23T03:26:43.247Z,98.68
2016-12-23T03:27:11.605Z,98.3
2016-12-23T03:28:23.008Z,98.39
2016-12-23T03:28:51.233Z,98.58
2016-12-23T03:29:19.588Z,98.88
2016-12-23T03:29:47.911Z,98.88
2016-12-23T03:30:16.265Z,98.88
2016-12-23T03:30:44.596Z,98.58
2016-12-23T03:31:12.905Z,98.2
2016-12-23T03:31:41.111Z,97.91
2016-12-23T03:32:09.343Z,98.3
2016-12-23T03:32:37.545Z,98.3
2016-12-23T03:33:05.904Z,98.49
2016-12-23T03:34:17.310Z,98.68
2016-12-23T03:34:45.538Z,98.58
2016-12-23T03:35:13.796Z,98.58
2016-12-23T03:35:41.936Z,98.2
2016-12-23T03:36:10.201Z,98.3
2016-12-23T03:36:38.528Z,98.2
2016-12-23T03:37:06.837Z,98.3
2016-12-23T03:37:35.041Z,98.39
2016-12-23T03:38:03.360Z,98.2
2016-12-23T03:38:31.658Z,98.2
2016-12-23T03:39:00.014Z,98.39
2016-12-23T03:40:11.329Z,98.97
2016-12-23T03:40:39.495Z,98.68
2016-12-23T03:41:07.852Z,99.07
2016-12-23T03:41:36.180Z,98.88
2016-12-23T03:42:04.538Z,98.78
2016-12-23T03:42:32.870Z,98.3
2016-12-23T03:43:01.091Z,98.2
2016-12-23T03:43:29.309Z,98.1
2016-12-23T03:43:57.633Z,98.39
2016-12-23T03:44:25.741Z,98.49
2016-12-23T03:44:54.098Z,98.39
2016-12-23T03:46:05.320Z,97.91
2016-12-23T03:46:33.452Z,98.2
2016-12-23T03:47:01.805Z,98.49
2016-12-23T03:47:29.947Z,98.3
2016-12-23T03:47:58.303Z,98.2
2016-12-23T03:48:26.630Z,97.62
2016-12-23T03:48:54.947Z,98.1
2016-12-23T03:49:23.053Z,97.81
2016-12-23T03:49:51.373Z,97.91
2016-12-23T03:50:19.293Z,98.2
2016-12-23T03:50:47.648Z,98.39
2016-12-23T03:51:59.054Z,98.39
2016-12-23T03:52:27.391Z,98.58
2016-12-23T03:52:55.726Z,99.07
2016-12-23T03:53:23.959Z,98.78
2016-12-23T03:53:52.322Z,98.88
2016-12-23T03:54:20.653Z,98.68
2016-12-23T03:54:48.966Z,98.68
2016-12-23T03:55:17.258Z,99.16
2016-12-23T03:55:45.586Z,98.88
2016-12-23T03:56:13.790Z,99.16
2016-12-23T03:56:42.152Z,99.45
2016-12-23T03:57:53.557Z,99.16
2016-12-23T03:58:21.783Z,99.5
2016-12-23T03:58:49.950Z,99.31
2016-12-23T03:59:18.184Z,99.69
2016-12-23T03:59:46.542Z,99.6
2016-12-23T04:00:14.871Z,99.6
2016-12-23T04:00:43.184Z,99.69
2016-12-23T04:01:11.295Z,99.6
2016-12-23T04:01:39.614Z,99.69
2016-12-23T04:02:07.724Z,99.4
2016-12-23T04:02:35.990Z,99.4
2016-12-23T04:03:47.398Z,99.99
2016-12-23T04:04:15.621Z,99.99
2016-12-23T04:04:43.977Z,99.99
2016-12-23T04:05:12.118Z,99.99
2016-12-23T04:05:40.470Z,99.99
2016-12-23T04:06:08.799Z,99.99
2016-12-23T04:06:37.015Z,99.99
2016-12-23T04:07:05.214Z,99.99
2016-12-23T04:07:33.535Z,99.99
2016-12-23T04:08:01.652Z,99.98
2016-12-23T04:08:30.005Z,99.99
2016-12-23T04:09:41.405Z,99.99
2016-12-23T04:10:09.728Z,99.99
2016-12-23T04:10:37.985Z,99.99
2016-12-23T04:11:06.128Z,99.99
2016-12-23T04:11:34.386Z,99.99
2016-12-23T04:12:02.715Z,99.99
2016-12-23T04:12:31.021Z,99.99
2016-12-23T04:12:59.125Z,99.99
2016-12-23T04:13:27.355Z,99.99
2016-12-23T04:13:55.467Z,99.99
2016-12-23T04:14:23.722Z,99.99
2016-12-23T04:15:34.937Z,99.99
2016-12-23T04:16:03.257Z,99.99
2016-12-23T04:16:31.425Z,99.99
2016-12-23T04:16:59.669Z,99.99
2016-12-23T04:17:28.022Z,99.99
2016-12-23T04:17:56.258Z,99.99
2016-12-23T04:18:24.562Z,99.99
2016-12-23T04:18:52.762Z,99.99
2016-12-23T04:19:20.990Z,99.99
2016-12-23T04:19:49.193Z,99.99
2016-12-23T04:20:17.549Z,99.99
2016-12-23T04:21:28.949Z,99.99
2016-12-23T04:21:57.266Z,99.99
2016-12-23T04:22:25.529Z,99.99
2016-12-23T04:22:53.855Z,99.99
2016-12-23T04:23:22.208Z,99.99
2016-12-23T04:23:50.444Z,99.99
2016-12-23T04:24:19.200Z,99.99
2016-12-23T04:24:47.307Z,99.99
2016-12-23T04:25:15.539Z,99.99
2016-12-23T04:25:43.742Z,99.99
2016-12-23T04:26:12.097Z,99.99
2016-12-23T04:27:23.320Z,99.99
2016-12-23T04:27:51.633Z,99.99
2016-12-23T04:28:19.985Z,99.99
2016-12-23T04:28:48.226Z,99.99
2016-12-23T04:29:16.579Z,99.99
2016-12-23T04:29:44.721Z,99.99
2016-12-23T04:30:13.024Z,99.99
2016-12-23T04:30:41.128Z,99.99
2016-12-23T04:31:09.352Z,99.99
2016-12-23T04:31:37.554Z,99.99
2016-12-23T04:32:05.913Z,99.99
2016-12-23T04:33:17.227Z,99.99
2016-12-23T04:33:45.544Z,99.99
2016-12-23T04:34:13.896Z,99.99
2016-12-23T04:34:42.226Z,99.99
2016-12-23T04:35:10.580Z,99.99
2016-12-23T04:35:38.907Z,99.99
2016-12-23T04:36:07.217Z,99.99
2016-12-23T04:36:35.234Z,99.99
2016-12-23T04:37:03.554Z,99.99
2016-12-23T04:37:31.758Z,99.99
2016-12-23T04:38:00.021Z,99.99
2016-12-23T04:39:11.424Z,99.99
2016-12-23T04:39:39.739Z,99.99
2016-12-23T04:40:08.095Z,99.99
2016-12-23T04:40:36.332Z,99.99
2016-12-23T04:41:05.241Z,99.99
2016-12-23T04:41:33.478Z,99.99
2016-12-23T04:42:01.789Z,99.99
2016-12-23T04:42:29.799Z,99.99
2016-12-23T04:42:58.121Z,99.99
2016-12-23T04:43:26.414Z,99.99
2016-12-23T04:43:54.773Z,99.99
2016-12-23T04:45:05.900Z,99.99
2016-12-23T04:45:34.119Z,99.99
2016-12-23T04:46:02.379Z,99.99
2016-12-23T04:46:30.706Z,99.99
2016-12-23T04:46:58.971Z,99.99
2016-12-23T04:47:27.205Z,99.99
2016-12-23T04:47:55.515Z,99.99
2016-12-23T04:48:23.809Z,99.99
2016-12-23T04:48:52.039Z,99.99
2016-12-23T04:49:20.243Z,99.99
2016-12-23T04:49:49.062Z,99.99
2016-12-23T04:51:00.376Z,99.99
2016-12-23T04:51:28.697Z,99.99
2016-12-23T04:51:57.050Z,99.99
2016-12-23T04:52:25.285Z,99.99
2016-12-23T04:52:53.548Z,99.99
2016-12-23T04:53:21.877Z,99.99
2016-12-23T04:53:50.187Z,99.99
2016-12-23T04:54:18.385Z,99.99
2016-12-23T04:54:46.613Z,99.99
2016-12-23T04:55:14.908Z,99.99
2016-12-23T04:55:43.175Z,99.99
2016-12-23T04:56:54.488Z,99.99
2016-12-23T04:57:22.711Z,99.99
2016-12-23T04:57:50.970Z,99.99
2016-12-23T04:58:19.302Z,99.99
2016-12-23T04:58:47.564Z,99.99
2016-12-23T04:59:15.797Z,99.99
2016-12-23T04:59:44.016Z,99.99
2016-12-23T05:00:12.215Z,99.99
2016-12-23T05:00:40.536Z,99.99
2016-12-23T05:01:08.737Z,99.99
2016-12-23T05:01:37.090Z,99.99
2016-12-23T05:02:48.402Z,99.99
2016-12-23T05:03:16.527Z,99.99
2016-12-23T05:03:44.689Z,99.99
2016-12-23T05:04:12.923Z,99.99
2016-12-23T05:04:41.277Z,99.99
2016-12-23T05:05:09.606Z,99.99
2016-12-23T05:05:37.916Z,99.99
2016-12-23T05:06:06.121Z,99.99
2016-12-23T05:06:34.291Z,99.99
2016-12-23T05:07:02.589Z,99.99
2016-12-23T05:07:30.949Z,99.99
2016-12-23T05:08:42.357Z,99.99
2016-12-23T05:09:10.482Z,99.99
2016-12-23T05:09:38.740Z,99.99
2016-12-23T05:10:06.882Z,99.99
2016-12-23T05:10:35.236Z,99.99
2016-12-23T05:11:03.380Z,99.99
2016-12-23T05:11:31.693Z,99.99
2016-12-23T05:11:59.987Z,99.99
2016-12-23T05:12:28.311Z,99.99
2016-12-23T05:12:56.510Z,99.99
2016-12-23T05:13:24.865Z,99.99
2016-12-23T05:14:36.179Z,99.99
2016-12-23T05:15:04.402Z,99.99
2016-12-23T05:15:32.750Z,99.99
2016-12-23T05:16:01.080Z,99.99
2016-12-23T05:16:29.342Z,99.99
2016-12-23T05:16:57.673Z,99.99
2016-12-23T05:17:25.986Z,99.99
2016-12-23T05:17:54.192Z,99.99
2016-12-23T05:18:22.515Z,99.99
2016-12-23T05:18:50.624Z,99.99
2016-12-23T05:19:18.983Z,99.99
2016-12-23T05:20:30.390Z,99.99
2016-12-23T05:20:58.704Z,99.99
2016-12-23T05:21:26.963Z,99.99
2016-12-23T05:21:55.197Z,99.99
2016-12-23T05:22:23.548Z,99.99
2016-12-23T05:22:51.786Z,99.99
2016-12-23T05:23:20.094Z,99.99
2016-12-23T05:23:48.391Z,99.99
2016-12-23T05:24:16.712Z,99.99
2016-12-23T05:24:44.918Z,99.99
2016-12-23T05:25:13.277Z,99.99
2016-12-23T05:26:24.596Z,99.99
2016-12-23T05:26:52.916Z,99.99
2016-12-23T05:27:21.174Z,99.99
2016-12-23T05:27:49.508Z,99.99
2016-12-23T05:28:17.867Z,99.99
2016-12-23T05:28:46.104Z,99.99
2016-12-23T05:29:14.321Z,99.99
2016-12-23T05:29:42.521Z,99.99
2016-12-23T05:30:10.749Z,99.99
2016-12-23T05:30:38.955Z,99.99
2016-12-23T05:31:07.315Z,99.99
2016-12-23T05:32:18.629Z,99.99
2016-12-23T05:32:46.951Z,99.99
2016-12-23T05:33:15.305Z,99.99
2016-12-23T05:33:43.630Z,99.99
2016-12-23T05:34:11.890Z,99.99
2016-12-23T05:34:40.128Z,99.99
2016-12-23T05:35:08.440Z,99.99
2016-12-23T05:35:36.550Z,99.99
2016-12-23T05:36:04.869Z,99.99
2016-12-23T05:36:33.072Z,99.99
2016-12-23T05:37:01.425Z,99.99
2016-12-23T05:38:12.552Z,99.99
2016-12-23T05:38:40.780Z,99.99
2016-12-23T05:39:09.134Z,99.99
2016-12-23T05:39:37.365Z,99.99
2016-12-23T05:40:05.626Z,99.99
2016-12-23T05:40:33.861Z,99.99
2016-12-23T05:41:02.165Z,99.99
2016-12-23T05:41:30.367Z,99.99
2016-12-23T05:41:58.695Z,99.99
2016-12-23T05:42:26.901Z,99.99
2016-12-23T05:42:55.163Z,99.99
2016-12-23T05:44:06.566Z,99.99
2016-12-23T05:44:34.883Z,99.99
2016-12-23T05:45:03.237Z,99.99
2016-12-23T05:45:31.563Z,99.99
2016-12-23T05:45:59.919Z,99.99
2016-12-23T05:46:28.188Z,99.99
2016-12-23T05:46:56.502Z,99.99
2016-12-23T05:47:24.704Z,99.99
2016-12-23T05:47:53.028Z,99.99
2016-12-23T05:48:21.321Z,99.99
2016-12-23T05:48:49.678Z,99.99
2016-12-23T05:50:01.083Z,99.99
2016-12-23T05:50:29.400Z,99.99
2016-12-23T05:50:57.755Z,99.99
2016-12-23T05:51:25.893Z,99.99
2016-12-23T05:51:54.251Z,99.99
2016-12-23T05:52:22.507Z,99.99
2016-12-23T05:52:50.630Z,99.99
2016-12-23T05:53:18.640Z,99.99
2016-12-23T05:53:46.870Z,99.99
2016-12-23T05:54:14.979Z,99.99
2016-12-23T05:54:43.335Z,99.99
2016-12-23T05:55:54.747Z,99.99
2016-12-23T05:56:22.969Z,99.99
2016-12-23T05:56:51.227Z,99.99
2016-12-23T05:57:19.555Z,99.99
2016-12-23T05:57:47.904Z,99.99
2016-12-23T05:58:16.235Z,99.99
2016-12-23T05:58:44.546Z,99.99
2016-12-23T05:59:12.645Z,99.99
2016-12-23T05:59:40.967Z,99.99
2016-12-23T06:00:09.075Z,99.99
2016-12-23T06:00:37.430Z,99.99
2016-12-23T06:01:48.831Z,99.99
2016-12-23T06:02:17.146Z,99.99
2016-12-23T06:02:45.502Z,99.99
2016-12-23T06:03:13.825Z,99.99
2016-12-23T06:03:42.186Z,99.99
2016-12-23T06:04:10.421Z,99.99
2016-12-23T06:04:38.729Z,99.99
2016-12-23T06:05:06.836Z,99.99
2016-12-23T06:05:35.153Z,99.99
2016-12-23T06:06:03.261Z,99.99
2016-12-23T06:06:31.614Z,99.99
2016-12-23T06:07:42.927Z,99.99
2016-12-23T06:08:11.510Z,99.99
2016-12-23T06:08:39.864Z,99.99
2016-12-23T06:09:08.093Z,99.99
2016-12-23T06:09:36.450Z,99.99
2016-12-23T06:10:04.774Z,99.99
2016-12-23T06:10:32.991Z,99.99
2016-12-23T06:11:01.188Z,99.99
2016-12-23T06:11:29.503Z,99.99
2016-12-23T06:11:57.707Z,99.99
2016-12-23T06:12:26.060Z,99.99
2016-12-23T06:13:37.467Z,99.99
2016-12-23T06:14:05.691Z,99.99
2016-12-23T06:14:34.395Z,99.99
2016-12-23T06:15:02.718Z,99.99
2016-12-23T06:15:30.987Z,99.99
2016-12-23T06:15:59.225Z,99.99
2016-12-23T06:16:27.535Z,99.99
2016-12-23T06:16:55.642Z,99.99
2016-12-23T06:17:23.945Z,99.99
2016-12-23T06:17:51.962Z,99.99
2016-12-23T06:18:20.223Z,99.99
2016-12-23T06:19:31.539Z,99.99
2016-12-23T06:19:59.758Z,99.99
2016-12-23T06:20:28.110Z,99.99
2016-12-23T06:20:56.344Z,99.99
2016-12-23T06:21:24.697Z,99.99
2016-12-23T06:21:52.839Z,99.99
2016-12-23T06:22:21.152Z,99.99
2016-12-23T06:22:49.259Z,99.99
2016-12-23T06:23:17.489Z,99.99
2016-12-23T06:23:45.594Z,99.99
2016-12-23T06:24:13.952Z,99.99
2016-12-23T06:25:25.268Z,99.99
2016-12-23T06:25:53.580Z,99.99
2016-12-23T06:26:21.839Z,99.99
2016-12-23T06:26:50.075Z,99.99
2016-12-23T06:27:18.431Z,99.99
2016-12-23T06:27:46.760Z,99.99
2016-12-23T06:28:15.068Z,99.99
2016-12-23T06:28:43.177Z,99.99
2016-12-23T06:29:11.498Z,99.99
2016-12-23T06:29:39.796Z,99.99
2016-12-23T06:30:08.151Z,99.99
2016-12-23T06:31:19.465Z,99.99
2016-12-23T06:31:47.784Z,99.99
2016-12-23T06:32:16.139Z,99.99
2016-12-23T06:32:44.370Z,99.99
2016-12-23T06:33:12.724Z,99.99
2016-12-23T06:33:40.964Z,99.99
2016-12-23T06:34:09.274Z,99.99
2016-12-23T06:34:37.379Z,99.99
2016-12-23T06:35:05.700Z,99.99
2016-12-23T06:35:33.997Z,99.99
2016-12-23T06:36:02.355Z,99.99
2016-12-23T06:37:13.671Z,99.99
2016-12-23T06:37:41.988Z,99.99
2016-12-23T06:38:10.345Z,99.99
2016-12-23T06:38:38.494Z,99.99
2016-12-23T06:39:06.754Z,99.99
2016-12-23T06:39:34.992Z,99.99
2016-12-23T06:40:03.209Z,99.99
2016-12-23T06:40:31.505Z,99.99
2016-12-23T06:40:59.822Z,99.99
2016-12-23T06:41:27.934Z,99.99
2016-12-23T06:41:56.287Z,99.99
2016-12-23T06:43:07.599Z,99.99
2016-12-23T06:43:35.916Z,99.99
2016-12-23T06:44:04.083Z,99.99
2016-12-23T06:44:32.227Z,99.99
2016-12-23T06:45:00.490Z,99.99
2016-12-23T06:45:28.821Z,99.99
2016-12-23T06:45:57.132Z,99.99
2016-12-23T06:46:25.330Z,99.99
2016-12-23T06:46:53.657Z,99.99
2016-12-23T06:47:21.768Z,99.99
2016-12-23T06:47:50.123Z,99.99
2016-12-23T06:49:01.531Z,99.99
2016-12-23T06:49:29.756Z,99.99
2016-12-23T06:49:57.921Z,99.99
2016-12-23T06:50:26.159Z,99.99
2016-12-23T06:50:54.513Z,99.99
2016-12-23T06:51:22.842Z,99.99
2016-12-23T06:51:51.153Z,99.99
2016-12-23T06:52:19.355Z,99.99
2016-12-23T06:52:47.581Z,99.99
2016-12-23T06:53:15.782Z,99.99
2016-12-23T06:53:44.137Z,99.99
2016-12-23T06:54:55.449Z,99.99
2016-12-23T06:55:23.766Z,99.99
2016-12-23T06:55:52.029Z,99.99